createdAt,value
2023-05-24T00:02:49.893Z,58.12
2023-05-24T00:07:55.366Z,57.49
2023-05-24T00:12:59.002Z,57.66
2023-05-24T00:18:02.706Z,57.37
2023-05-24T00:23:08.102Z,57.37
2023-05-24T00:28:11.802Z,57.24
2023-05-24T00:33:15.471Z,58.24
2023-05-24T00:38:20.821Z,58.12
2023-05-24T00:43:24.805Z,57.51
2023-05-24T00:48:28.581Z,58.39
2023-05-24T00:53:36.241Z,60.00
2023-05-24T00:58:40.398Z,58.76
2023-05-24T01:03:44.292Z,58.50
2023-05-24T01:09:03.419Z,58.49
2023-05-24T01:14:19.313Z,57.52
2023-05-24T01:19:44.551Z,58.49
2023-05-24T01:25:01.671Z,59.04
2023-05-24T01:30:09.135Z,58.99
2023-05-24T01:35:12.961Z,59.25
2023-05-24T01:40:17.204Z,60.21
2023-05-24T01:45:31.254Z,60.64
2023-05-24T01:50:39.433Z,61.18
2023-05-24T01:55:44.987Z,60.49
2023-05-24T02:00:52.534Z,62.37
2023-05-24T02:05:56.226Z,61.92
2023-05-24T02:10:59.876Z,63.31
2023-05-24T02:16:05.585Z,62.87
2023-05-24T02:21:08.471Z,63.80
2023-05-24T02:26:12.143Z,64.04
2023-05-24T02:31:17.478Z,64.84
2023-05-24T02:36:21.282Z,65.21
2023-05-24T02:41:24.936Z,66.00
2023-05-24T02:46:30.279Z,65.99
2023-05-24T02:51:33.943Z,67.06
2023-05-24T02:56:37.743Z,67.30
2023-05-24T03:01:43.068Z,68.60
2023-05-24T03:06:47.558Z,67.76
2023-05-24T03:11:51.220Z,68.63
2023-05-24T03:16:57.501Z,68.42
2023-05-24T03:22:01.196Z,68.52
2023-05-24T03:27:05.149Z,69.17
2023-05-24T03:32:10.500Z,69.00
2023-05-24T03:37:14.154Z,68.47
2023-05-24T03:42:17.857Z,68.48
2023-05-24T03:47:23.241Z,69.12
2023-05-24T03:52:27.072Z,69.02
2023-05-24T03:57:30.720Z,69.29
2023-05-24T04:02:36.061Z,69.70
2023-05-24T04:07:39.890Z,69.66
2023-05-24T04:12:43.567Z,70.13
2023-05-24T04:17:48.897Z,70.67
2023-05-24T04:22:52.646Z,70.24
2023-05-24T04:27:56.355Z,70.69
2023-05-24T04:33:01.814Z,71.05
2023-05-24T04:38:05.590Z,71.05
2023-05-24T04:43:09.699Z,71.57
2023-05-24T04:48:15.049Z,71.37
2023-05-24T04:53:18.752Z,71.06
2023-05-24T04:58:22.531Z,71.24
2023-05-24T05:03:27.987Z,72.21
2023-05-24T05:08:31.732Z,72.23
2023-05-24T05:13:35.378Z,72.58
2023-05-24T05:18:40.671Z,72.58
2023-05-24T05:23:44.337Z,72.94
2023-05-24T05:28:47.994Z,72.98
2023-05-24T05:33:53.732Z,73.61
2023-05-24T05:38:58.143Z,73.23
2023-05-24T05:44:01.838Z,73.10
2023-05-24T05:49:07.755Z,73.91
2023-05-24T05:54:10.962Z,75.05
2023-05-24T05:59:15.223Z,74.06
2023-05-24T06:04:20.625Z,75.42
2023-05-24T06:09:24.387Z,74.35
2023-05-24T06:14:28.169Z,74.46
2023-05-24T06:19:33.479Z,74.52
2023-05-24T06:24:37.148Z,74.28
2023-05-24T06:29:40.830Z,75.08
2023-05-24T06:34:47.158Z,75.46
2023-05-24T06:39:50.812Z,74.93
2023-05-24T06:44:54.467Z,75.29
2023-05-24T06:49:59.765Z,75.43
2023-05-24T06:55:03.464Z,74.65
2023-05-24T07:00:08.615Z,74.85
2023-05-24T07:05:13.973Z,75.76
2023-05-24T07:10:17.742Z,75.71
2023-05-24T07:15:21.467Z,75.90
2023-05-24T07:20:27.017Z,76.00
2023-05-24T07:25:31.129Z,75.62
2023-05-24T07:30:34.978Z,75.83
2023-05-24T07:35:41.430Z,75.81
2023-05-24T07:41:03.750Z,76.10
2023-05-24T07:46:07.482Z,75.78
2023-05-24T07:51:11.142Z,76.25
2023-05-24T07:56:16.451Z,76.51
2023-05-24T08:01:20.139Z,76.19
2023-05-24T08:06:23.905Z,76.53
2023-05-24T08:11:29.256Z,76.86
2023-05-24T08:16:33.522Z,76.51
2023-05-24T08:21:37.210Z,76.60
2023-05-24T08:26:42.580Z,76.26
2023-05-24T08:31:46.270Z,76.24
2023-05-24T08:36:50.504Z,76.39
2023-05-24T08:42:08.526Z,76.80
2023-05-24T08:47:13.834Z,77.13
2023-05-24T08:52:18.804Z,76.81
2023-05-24T08:57:27.137Z,77.01
2023-05-24T09:02:32.416Z,77.05
2023-05-24T09:07:36.206Z,77.42
2023-05-24T09:12:45.307Z,78.03
2023-05-24T09:17:49.000Z,77.59
2023-05-24T09:22:53.482Z,76.99
2023-05-24T09:27:58.880Z,76.57
2023-05-24T09:33:02.834Z,77.06
2023-05-24T09:38:06.538Z,77.70
2023-05-24T09:43:12.297Z,78.35
2023-05-24T09:48:16.707Z,78.03
2023-05-24T09:53:23.044Z,77.87
2023-05-24T09:58:31.044Z,77.70
2023-05-24T10:03:35.533Z,77.60
2023-05-24T10:08:39.862Z,78.12
2023-05-24T10:13:45.646Z,77.67
2023-05-24T10:18:49.360Z,78.65
2023-05-24T10:23:55.789Z,79.83
2023-05-24T10:29:07.534Z,79.91
2023-05-24T10:34:11.926Z,79.51
2023-05-24T10:39:15.638Z,79.61
2023-05-24T10:44:21.625Z,79.96
2023-05-24T10:49:25.259Z,80.63
2023-05-24T10:54:28.955Z,81.52
2023-05-24T10:59:36.513Z,82.71
2023-05-24T11:04:41.299Z,81.40
2023-05-24T11:09:48.175Z,81.23
2023-05-24T11:14:54.695Z,81.16
2023-05-24T11:19:58.593Z,80.59
2023-05-24T11:25:03.036Z,81.72
2023-05-24T11:30:10.315Z,82.31
2023-05-24T11:35:14.012Z,81.01
2023-05-24T11:40:18.236Z,81.67
2023-05-24T11:45:23.724Z,81.13
2023-05-24T11:50:28.811Z,80.88
2023-05-24T11:55:33.336Z,81.40
2023-05-24T12:00:38.757Z,80.96
2023-05-24T12:05:42.443Z,82.04
2023-05-24T12:10:46.215Z,81.75
2023-05-24T12:15:55.853Z,82.04
2023-05-24T12:21:00.554Z,81.29
2023-05-24T12:26:04.313Z,81.07
2023-05-24T12:31:10.658Z,81.05
2023-05-24T12:36:14.962Z,81.27
2023-05-24T12:41:18.621Z,81.38
2023-05-24T12:46:23.932Z,81.98
2023-05-24T12:51:27.635Z,82.09
2023-05-24T12:56:31.352Z,81.74
2023-05-24T13:01:37.851Z,82.23
2023-05-24T13:06:41.663Z,82.22
2023-05-24T13:11:45.381Z,82.77
2023-05-24T13:16:51.134Z,83.59
2023-05-24T13:21:54.889Z,83.69
2023-05-24T13:26:58.792Z,85.83
2023-05-24T13:32:04.151Z,86.42
2023-05-24T13:37:07.977Z,84.75
2023-05-24T13:42:11.825Z,84.38
2023-05-24T13:47:27.297Z,84.79
2023-05-24T13:52:39.478Z,84.06
2023-05-24T13:57:51.556Z,83.85
2023-05-24T14:02:57.599Z,83.69
2023-05-24T14:08:01.343Z,83.13
2023-05-24T14:18:16.514Z,81.39
2023-05-24T14:23:20.200Z,82.05
2023-05-24T14:28:23.892Z,82.76
2023-05-24T14:33:29.210Z,82.81
2023-05-24T14:38:32.946Z,81.89
2023-05-24T14:43:36.604Z,80.78
2023-05-24T14:48:41.926Z,79.77
2023-05-24T14:53:45.631Z,79.37
2023-05-24T14:58:49.282Z,79.61
2023-05-24T15:03:54.750Z,79.52
2023-05-24T15:08:58.561Z,80.21
2023-05-24T15:14:02.241Z,80.29
2023-05-24T15:19:07.585Z,78.66
2023-05-24T15:24:11.262Z,78.25
2023-05-24T15:29:14.970Z,78.10
2023-05-24T15:34:21.498Z,78.80
2023-05-24T15:39:27.226Z,78.08
2023-05-24T15:44:30.914Z,76.90
2023-05-24T15:49:37.223Z,76.38
2023-05-24T15:54:40.885Z,76.76
2023-05-24T15:59:44.604Z,75.91
2023-05-24T16:04:51.658Z,75.32
2023-05-24T16:09:55.438Z,74.42
2023-05-24T16:15:00.378Z,73.38
2023-05-24T16:20:06.371Z,72.71
2023-05-24T16:25:09.558Z,71.36
2023-05-24T16:30:13.920Z,71.22
2023-05-24T16:35:19.298Z,71.01
2023-05-24T16:40:23.175Z,70.47
2023-05-24T16:45:26.859Z,69.70
2023-05-24T16:50:32.176Z,69.97
2023-05-24T16:55:35.820Z,68.83
2023-05-24T17:00:39.477Z,69.03
2023-05-24T17:05:44.796Z,69.55
2023-05-24T17:10:48.589Z,68.46
2023-05-24T17:15:52.450Z,68.09
2023-05-24T17:20:58.697Z,69.29
2023-05-24T17:26:02.990Z,68.71
2023-05-24T17:31:09.242Z,68.39
2023-05-24T17:36:14.608Z,68.25
2023-05-24T17:41:18.320Z,67.77
2023-05-24T17:46:22.004Z,67.82
2023-05-24T17:51:27.388Z,66.93
2023-05-24T17:56:31.054Z,66.17
2023-05-24T18:01:35.197Z,64.53
2023-05-24T18:06:40.556Z,63.45
2023-05-24T18:11:44.215Z,63.75
2023-05-24T18:16:47.928Z,62.67
2023-05-24T18:21:54.102Z,61.12
2023-05-24T18:26:57.733Z,61.31
2023-05-24T18:32:01.424Z,61.05
2023-05-24T18:37:06.946Z,60.90
2023-05-24T18:42:10.592Z,59.68
2023-05-24T18:47:14.255Z,58.87
2023-05-24T18:52:20.488Z,58.84
2023-05-24T18:57:24.195Z,59.80
2023-05-24T19:02:27.984Z,58.63
2023-05-24T19:07:35.090Z,57.62
2023-05-24T19:12:38.811Z,58.30
2023-05-24T19:17:42.509Z,59.12
2023-05-24T19:22:48.006Z,57.61
2023-05-24T19:32:58.088Z,56.57
2023-05-24T19:38:03.473Z,54.86
2023-05-24T19:43:07.137Z,55.37
2023-05-24T19:48:10.761Z,54.24
2023-05-24T19:53:16.603Z,53.34
2023-05-24T19:58:20.255Z,53.96
2023-05-24T20:03:23.966Z,54.22
2023-05-24T20:08:29.390Z,54.20
2023-05-24T20:13:33.053Z,54.17
2023-05-24T20:18:36.731Z,54.24
2023-05-24T20:23:43.001Z,55.09
2023-05-24T20:28:46.648Z,54.45
2023-05-24T20:33:51.079Z,53.84
2023-05-24T20:38:56.451Z,53.30
2023-05-24T20:44:00.120Z,54.34
2023-05-24T20:49:03.783Z,54.24
2023-05-24T20:54:09.173Z,53.06
2023-05-24T20:59:12.888Z,52.64
2023-05-24T21:04:16.557Z,53.67
2023-05-24T21:09:21.887Z,51.73
2023-05-24T21:14:25.540Z,51.55
2023-05-24T21:19:29.239Z,51.50
2023-05-24T21:24:34.572Z,52.55
2023-05-24T21:29:38.247Z,52.80
2023-05-24T21:34:42.068Z,52.53
2023-05-24T21:39:48.353Z,52.26
2023-05-24T21:44:52.056Z,51.23
2023-05-24T21:49:55.745Z,52.15
2023-05-24T22:00:32.143Z,52.45
2023-05-24T22:05:35.807Z,52.06
2023-05-24T22:10:41.151Z,52.12
2023-05-24T22:15:45.094Z,52.55
2023-05-24T22:20:50.455Z,51.16
2023-05-24T22:25:55.742Z,51.03
2023-05-24T22:30:59.413Z,50.66
2023-05-24T22:36:03.032Z,50.38
2023-05-24T22:41:08.422Z,52.63
2023-05-24T22:46:11.419Z,51.98
2023-05-24T22:51:15.034Z,51.32
2023-05-24T22:56:20.503Z,52.02
2023-05-24T23:01:23.510Z,51.44
2023-05-24T23:06:27.245Z,52.39
2023-05-24T23:11:32.589Z,51.97
2023-05-24T23:16:36.565Z,52.00
2023-05-24T23:21:40.297Z,52.92
2023-05-24T23:26:45.614Z,52.08
2023-05-24T23:31:49.331Z,53.27
2023-05-24T23:36:53.204Z,53.71
2023-05-24T23:41:58.597Z,53.01
2023-05-24T23:47:03.547Z,52.75
2023-05-24T23:52:08.184Z,53.38
2023-05-24T23:57:13.982Z,53.18
